createdAt,value
2019-01-10T01:05:32.295Z,92.10
2019-01-10T01:08:29.858Z,92.70
2019-01-10T01:11:56.927Z,92.70
2019-01-10T01:15:43.308Z,92.40
2019-01-10T01:19:01.655Z,91.70
2019-01-10T01:22:11.899Z,92.30
2019-01-10T01:25:06.047Z,91.90
2019-01-10T01:27:58.135Z,91.70
2019-01-10T01:31:29.968Z,91.60
2019-01-10T01:37:35.600Z,91.70
2019-01-10T01:40:23.846Z,91.20
2019-01-10T01:43:07.479Z,91.00
2019-01-10T01:49:19.334Z,91.00
2019-01-10T01:52:04.473Z,91.00
2019-01-10T01:55:39.991Z,91.00
2019-01-10T01:58:52.580Z,91.00
2019-01-10T02:01:27.782Z,91.40
2019-01-10T02:04:56.125Z,91.10
2019-01-10T02:07:38.152Z,91.10
2019-01-10T02:10:35.008Z,91.00
2019-01-10T02:13:16.320Z,91.00
2019-01-10T02:15:50.444Z,91.30
2019-01-10T02:18:30.751Z,91.50
2019-01-10T02:21:03.715Z,91.00
2019-01-10T02:51:24.644Z,92.30
2019-01-10T02:53:56.097Z,92.30
2019-01-10T02:56:28.010Z,92.50
2019-01-10T02:59:04.240Z,92.80
2019-01-10T03:01:33.660Z,93.00
2019-01-10T03:04:05.770Z,93.40
2019-01-10T03:06:56.705Z,93.80
2019-01-10T03:09:31.436Z,94.40
2019-01-10T03:12:04.119Z,94.60
2019-01-10T03:14:38.054Z,94.80
2019-01-10T03:17:21.896Z,95.20
2019-01-10T03:20:13.282Z,94.90
2019-01-10T03:23:12.620Z,94.10
2019-01-10T03:25:49.911Z,94.40
2019-01-10T03:30:00.603Z,93.90
2019-01-10T03:33:33.872Z,93.70
2019-01-10T03:35:30.665Z,93.40
2019-01-10T03:41:29.344Z,93.00
2019-01-10T03:44:18.514Z,92.50
2019-01-10T03:47:10.350Z,93.00
2019-01-10T03:49:45.680Z,93.00
2019-01-10T03:52:32.108Z,93.00
2019-01-10T03:55:44.733Z,92.20
2019-01-10T03:59:06.342Z,92.30
2019-01-10T04:01:57.307Z,92.30
2019-01-10T04:04:45.583Z,92.70
2019-01-10T04:07:25.467Z,92.80
2019-01-10T04:09:56.839Z,93.00
2019-01-10T04:12:28.309Z,92.80
2019-01-10T05:20:56.103Z,91.70
2019-01-10T05:23:26.100Z,91.60
2019-01-10T05:25:56.304Z,91.10
2019-01-10T05:28:26.248Z,91.30
2019-01-10T05:30:56.184Z,91.40
2019-01-10T05:33:26.190Z,91.10
2019-01-10T05:35:56.275Z,91.10
2019-01-10T05:38:26.271Z,91.40
2019-01-10T05:40:56.233Z,91.40
2019-01-10T05:43:26.044Z,91.30
2019-01-10T05:45:56.164Z,91.40
2019-01-10T05:48:26.171Z,91.50
2019-01-10T05:50:56.154Z,91.40
2019-01-10T05:53:26.913Z,91.60
2019-01-10T05:55:56.905Z,91.60
2019-01-10T05:58:26.871Z,91.90
2019-01-10T06:00:56.711Z,91.10
2019-01-10T06:03:26.724Z,90.80
2019-01-10T06:05:56.668Z,91.20
2019-01-10T06:08:26.663Z,91.10
2019-01-10T06:10:56.643Z,91.10
2019-01-10T06:13:26.484Z,91.40
2019-01-10T06:15:56.679Z,91.20
2019-01-10T06:18:26.593Z,91.10
2019-01-10T06:20:56.925Z,91.60
2019-01-10T06:23:26.760Z,91.10
2019-01-10T06:25:56.765Z,91.20
2019-01-10T06:28:26.607Z,91.10
2019-01-10T06:30:59.631Z,91.40
2019-01-10T06:33:29.481Z,91.40
2019-01-10T06:35:59.328Z,91.20
2019-01-10T06:38:29.648Z,91.10
2019-01-10T06:40:59.602Z,91.20
2019-01-10T06:43:29.477Z,91.60
2019-01-10T06:45:59.756Z,91.70
2019-01-10T06:48:29.911Z,91.60
2019-01-10T06:51:00.418Z,92.00
2019-01-10T06:53:30.177Z,92.20
2019-01-10T06:55:59.998Z,92.30
2019-01-10T06:58:29.876Z,92.80
2019-01-10T07:01:04.487Z,92.90
2019-01-10T07:03:36.814Z,93.20
2019-01-10T07:06:08.427Z,93.50
2019-01-10T07:08:38.314Z,93.80
2019-01-10T07:11:09.715Z,94.10
2019-01-10T07:13:40.081Z,94.40
2019-01-10T07:16:10.402Z,94.50
2019-01-10T07:18:44.935Z,94.40
2019-01-10T07:21:15.497Z,95.00
2019-01-10T07:23:46.594Z,95.00
2019-01-10T07:26:16.947Z,95.00
2019-01-10T07:28:46.967Z,95.00
2019-01-10T07:31:36.865Z,95.00
2019-01-10T07:34:10.223Z,94.90
2019-01-10T07:36:43.176Z,95.30
2019-01-10T07:39:13.113Z,95.40
2019-01-10T07:41:43.069Z,95.30
2019-01-10T07:44:13.257Z,95.00
2019-01-10T07:46:46.610Z,95.10
2019-01-10T07:49:22.560Z,95.00
2019-01-10T07:51:53.938Z,95.00
2019-01-10T07:54:23.911Z,94.10
2019-01-10T07:56:57.340Z,94.60
2019-01-10T07:59:27.458Z,94.60
2019-01-10T08:01:57.536Z,94.60
2019-01-10T08:04:27.346Z,93.80
2019-01-10T08:06:57.446Z,93.20
2019-01-10T08:09:28.738Z,93.70
2019-01-10T08:12:00.877Z,93.20
2019-01-10T08:14:31.100Z,93.70
2019-01-10T08:17:01.128Z,93.10
2019-01-10T08:19:31.197Z,93.30
2019-01-10T08:22:01.012Z,93.40
2019-01-10T08:24:30.996Z,93.20
2019-01-10T08:27:00.945Z,93.30
2019-01-10T08:29:33.617Z,93.20
2019-01-10T08:32:04.192Z,92.10
2019-01-10T08:34:37.316Z,92.90
2019-01-10T08:37:07.315Z,93.10
2019-01-10T08:39:37.317Z,92.70
2019-01-10T08:42:09.660Z,92.10
2019-01-10T08:44:39.617Z,92.70
2019-01-10T08:47:09.492Z,93.20
2019-01-10T08:49:39.722Z,92.20
2019-01-10T08:52:09.789Z,92.50
2019-01-10T08:54:43.992Z,93.10
2019-01-10T08:57:13.784Z,93.20
2019-01-10T08:59:43.971Z,92.80
2019-01-10T09:02:17.230Z,92.20
2019-01-10T09:04:47.335Z,92.00
2019-01-10T09:07:17.431Z,92.70
2019-01-10T09:09:47.565Z,92.20
2019-01-10T09:12:17.491Z,92.00
2019-01-10T09:14:47.458Z,92.40
2019-01-10T09:17:17.459Z,91.70
2019-01-10T09:19:47.378Z,91.30
2019-01-10T09:22:17.353Z,91.50
2019-01-10T09:24:47.291Z,90.50
2019-01-10T09:27:17.179Z,90.90
2019-01-10T09:29:47.095Z,90.50
2019-01-10T09:32:17.118Z,91.10
2019-01-10T09:34:47.096Z,90.20
2019-01-10T09:37:17.174Z,90.90
2019-01-10T09:39:47.456Z,90.40
2019-01-10T09:42:17.561Z,90.90
2019-01-10T09:45:02.670Z,91.10
2019-01-10T09:47:32.810Z,91.00
2019-01-10T09:50:04.028Z,91.30
2019-01-10T09:52:35.094Z,91.30
2019-01-10T09:55:05.254Z,91.40
2019-01-10T09:57:35.222Z,91.10
2019-01-10T10:00:10.772Z,90.90
2019-01-10T10:02:40.612Z,91.20
2019-01-10T10:05:10.421Z,90.20
2019-01-10T10:07:40.268Z,90.40
2019-01-10T10:10:13.228Z,90.80
2019-01-10T10:12:43.138Z,90.70
2019-01-10T10:15:14.575Z,90.90
2019-01-10T10:17:45.752Z,89.80
2019-01-10T10:20:18.762Z,90.90
2019-01-10T10:22:48.732Z,90.20
2019-01-10T10:25:18.881Z,90.90
2019-01-10T10:27:49.040Z,91.30
2019-01-10T10:30:20.353Z,91.60
2019-01-10T10:32:50.248Z,90.60
2019-01-10T10:35:20.748Z,90.60
2019-01-10T10:37:50.619Z,91.10
2019-01-10T10:40:21.336Z,91.30
2019-01-10T10:42:52.140Z,91.40
2019-01-10T10:45:22.525Z,91.40
2019-01-10T10:47:52.654Z,90.80
2019-01-10T10:50:28.117Z,90.00
2019-01-10T10:52:58.926Z,91.30
2019-01-10T10:55:28.747Z,91.20
2019-01-10T10:57:58.588Z,90.90
2019-01-10T11:00:29.595Z,90.90
2019-01-10T11:03:00.178Z,91.00
2019-01-10T11:05:30.122Z,91.10
2019-01-10T11:08:00.079Z,90.40
2019-01-10T11:10:30.743Z,90.10
2019-01-10T11:13:00.632Z,90.50
2019-01-10T11:15:30.540Z,90.80
2019-01-10T11:18:00.413Z,90.00
2019-01-10T11:20:30.521Z,90.80
2019-01-10T11:23:00.610Z,90.60
2019-01-10T11:25:30.575Z,90.80
2019-01-10T11:28:00.703Z,90.80
2019-01-10T11:30:30.565Z,90.60
2019-01-10T11:33:00.457Z,90.40
2019-01-10T11:35:30.422Z,90.00
2019-01-10T11:38:00.291Z,90.50
2019-01-10T11:40:30.274Z,89.10
2019-01-10T11:43:02.883Z,89.10
2019-01-10T11:45:33.146Z,89.40
2019-01-10T11:48:03.258Z,90.40
2019-01-10T11:50:33.100Z,90.50
2019-01-10T11:53:03.173Z,90.80
2019-01-10T11:55:33.138Z,90.30
2019-01-10T11:58:03.022Z,90.90
2019-01-10T12:00:33.711Z,90.30
2019-01-10T12:03:05.945Z,90.40
2019-01-10T12:05:47.276Z,90.30
2019-01-10T12:08:10.852Z,90.40
2019-01-10T12:10:40.870Z,90.50
2019-01-10T12:13:10.871Z,90.00
2019-01-10T12:15:40.966Z,90.30
2019-01-10T12:18:10.903Z,89.80
2019-01-10T12:20:41.007Z,90.00
2019-01-10T12:23:11.024Z,90.30
2019-01-10T12:25:40.852Z,90.00
2019-01-10T12:28:11.684Z,88.90
2019-01-10T12:30:41.588Z,88.70
2019-01-10T12:33:11.607Z,90.00
2019-01-10T12:35:41.589Z,89.80
2019-01-10T12:38:11.557Z,89.80
2019-01-10T12:40:41.471Z,88.90
2019-01-10T12:43:11.886Z,88.90
2019-01-10T12:45:42.068Z,89.00
2019-01-10T12:48:12.390Z,87.40
2019-01-10T12:50:42.451Z,87.50
2019-01-10T12:53:12.509Z,88.10
2019-01-10T12:55:42.312Z,87.80
2019-01-10T12:58:12.253Z,84.80
2019-01-10T13:00:42.198Z,84.30
2019-01-10T13:03:12.073Z,84.30
2019-01-10T13:05:42.066Z,82.70
2019-01-10T13:08:12.000Z,81.90
2019-01-10T13:10:42.010Z,83.10
2019-01-10T13:13:12.044Z,81.40
2019-01-10T13:15:42.803Z,81.10
2019-01-10T13:18:12.814Z,80.90
2019-01-10T13:20:42.867Z,81.20
2019-01-10T13:23:12.904Z,82.40
2019-01-10T13:25:42.945Z,81.50
2019-01-10T13:28:12.900Z,81.10
2019-01-10T13:30:43.548Z,79.40
2019-01-10T13:33:13.636Z,80.90
2019-01-10T13:35:43.568Z,80.30
2019-01-10T13:38:13.555Z,80.80
2019-01-10T13:40:43.844Z,80.90
2019-01-10T13:43:14.809Z,82.20
2019-01-10T13:45:46.291Z,81.30
2019-01-10T13:48:16.497Z,82.70
2019-01-10T13:50:46.475Z,81.70
2019-01-10T13:53:16.431Z,83.90
2019-01-10T13:55:46.586Z,84.10
2019-01-10T13:58:16.558Z,83.30
2019-01-10T14:00:46.887Z,83.70
2019-01-10T14:03:17.732Z,84.60
2019-01-10T14:05:47.682Z,84.50
2019-01-10T14:08:17.739Z,84.10
2019-01-10T14:10:47.918Z,83.90
2019-01-10T14:13:18.154Z,84.70
2019-01-10T14:15:48.013Z,84.60
2019-01-10T14:18:34.609Z,84.60
2019-01-10T14:21:07.080Z,85.10
2019-01-10T14:23:37.380Z,84.60
2019-01-10T14:26:07.920Z,85.30
2019-01-10T14:28:38.204Z,85.60
2019-01-10T14:31:08.359Z,85.70
2019-01-10T14:33:38.330Z,85.40
2019-01-10T14:36:08.276Z,86.40
2019-01-10T14:38:38.236Z,85.40
2019-01-10T14:41:08.067Z,86.60
2019-01-10T14:43:37.932Z,86.80
2019-01-10T14:46:08.013Z,84.60
2019-01-10T14:48:38.068Z,86.90
2019-01-10T14:51:08.145Z,86.20
2019-01-10T14:53:38.063Z,84.40
2019-01-10T14:56:07.980Z,85.00
2019-01-10T14:58:38.534Z,84.40
2019-01-10T15:01:08.697Z,85.90
2019-01-10T15:03:38.775Z,84.50
2019-01-10T15:06:09.092Z,84.40
2019-01-10T15:08:39.127Z,85.70
2019-01-10T15:11:09.145Z,85.60
2019-01-10T15:13:39.325Z,84.90
2019-01-10T15:16:09.443Z,84.60
2019-01-10T15:18:39.686Z,84.50
2019-01-10T15:21:09.862Z,83.70
2019-01-10T15:23:40.747Z,84.50
2019-01-10T15:26:10.931Z,84.10
2019-01-10T15:28:42.764Z,83.70
2019-01-10T15:31:12.967Z,84.10
2019-01-10T15:33:42.956Z,82.60
2019-01-10T15:36:14.121Z,83.40
2019-01-10T15:38:44.034Z,81.20
2019-01-10T15:41:14.527Z,82.50
2019-01-10T15:43:44.619Z,80.00
2019-01-10T15:46:14.823Z,79.80
2019-01-10T15:48:47.905Z,80.10
2019-01-10T15:51:18.064Z,80.40
2019-01-10T15:53:48.219Z,82.30
2019-01-10T15:56:18.385Z,81.00
2019-01-10T15:58:48.505Z,80.00
2019-01-10T16:01:18.586Z,80.40
2019-01-10T16:03:48.526Z,80.00
2019-01-10T16:06:18.481Z,80.20
2019-01-10T16:08:48.533Z,79.30
2019-01-10T16:11:19.461Z,79.70
2019-01-10T16:13:49.615Z,79.60
2019-01-10T16:16:19.590Z,80.70
2019-01-10T16:19:11.567Z,80.20
2019-01-10T16:21:41.709Z,80.70
2019-01-10T16:24:11.611Z,81.40
2019-01-10T16:26:42.422Z,80.70
2019-01-10T16:29:12.718Z,80.80
2019-01-10T16:31:42.938Z,81.00
2019-01-10T16:34:13.437Z,79.70
2019-01-10T16:36:43.435Z,80.00
2019-01-10T16:39:13.435Z,81.80
2019-01-10T16:41:43.533Z,81.80
2019-01-10T16:44:13.633Z,80.40
2019-01-10T16:46:43.896Z,81.00
2019-01-10T16:49:14.127Z,80.70
2019-01-10T16:51:44.345Z,80.70
2019-01-10T16:54:14.540Z,80.10
2019-01-10T16:56:44.418Z,80.10
2019-01-10T16:59:15.154Z,80.70
2019-01-10T17:01:45.141Z,80.60
2019-01-10T17:04:15.456Z,80.50
2019-01-10T17:06:45.924Z,81.10
2019-01-10T17:09:17.736Z,80.80
2019-01-10T17:11:51.573Z,81.40
2019-01-10T17:14:21.560Z,81.60
2019-01-10T17:16:51.645Z,79.00
2019-01-10T17:19:21.730Z,80.50
2019-01-10T17:24:27.445Z,79.60
2019-01-10T17:32:17.413Z,81.10
2019-01-10T17:34:55.673Z,80.10
2019-01-10T17:37:26.570Z,78.60
2019-01-10T17:39:57.226Z,79.70
2019-01-10T17:42:27.990Z,78.80
2019-01-10T17:45:00.713Z,78.70
2019-01-10T17:47:33.629Z,77.00
2019-01-10T17:50:14.257Z,75.90
2019-01-10T17:52:45.525Z,77.00
2019-01-10T17:55:17.103Z,78.30
2019-01-10T17:57:47.890Z,78.10
2019-01-10T18:00:30.477Z,77.30
2019-01-10T18:03:01.773Z,77.90
2019-01-10T18:08:15.077Z,75.50
2019-01-10T18:10:46.344Z,76.00
2019-01-10T18:35:10.776Z,74.60
2019-01-10T18:37:43.139Z,75.00
2019-01-10T18:40:14.552Z,75.00
2019-01-10T18:42:44.596Z,74.60
2019-01-10T18:45:21.606Z,75.10
2019-01-10T18:47:56.987Z,74.10
2019-01-10T18:50:26.050Z,73.80
2019-01-10T18:52:56.109Z,74.20
2019-01-10T18:55:28.881Z,74.90
2019-01-10T18:58:32.211Z,76.10
2019-01-10T19:01:23.084Z,75.70
2019-01-10T19:04:04.161Z,75.10
2019-01-10T19:06:38.393Z,73.20
2019-01-10T19:09:19.402Z,73.40
2019-01-10T19:11:51.925Z,73.50
2019-01-10T19:14:22.543Z,75.00
2019-01-10T19:17:05.505Z,73.10
2019-01-10T19:19:40.543Z,73.40
2019-01-10T19:22:19.532Z,73.00
2019-01-10T19:24:50.528Z,73.70
2019-01-10T19:27:20.768Z,72.70
2019-01-10T19:29:51.555Z,73.40
2019-01-10T19:32:23.751Z,72.60
2019-01-10T19:35:07.176Z,71.60
2019-01-10T19:37:40.175Z,72.20
2019-01-10T19:40:50.805Z,72.00
2019-01-10T19:43:21.299Z,72.50
2019-01-10T19:45:51.639Z,71.90
2019-01-10T19:48:22.078Z,71.90
2019-01-10T19:51:08.142Z,72.80
2019-01-10T19:53:44.268Z,70.90
2019-01-10T19:56:24.358Z,70.80
2019-01-10T19:58:55.455Z,71.50
2019-01-10T20:01:26.857Z,70.70
2019-01-10T20:03:57.121Z,71.20
2019-01-10T20:06:30.794Z,70.00
2019-01-10T20:09:06.767Z,71.20
2019-01-10T20:11:42.780Z,71.70
2019-01-10T20:14:17.292Z,70.30
2019-01-10T20:16:49.514Z,70.30
2019-01-10T20:19:20.131Z,69.40
2019-01-10T20:21:52.797Z,70.30
2019-01-10T20:24:23.318Z,70.30
2019-01-10T20:26:55.383Z,70.30
2019-01-10T20:29:29.490Z,70.30
2019-01-10T20:32:02.431Z,69.20
2019-01-10T20:34:32.887Z,67.40
2019-01-10T20:37:03.295Z,67.10
2019-01-10T20:39:33.735Z,67.40
2019-01-10T20:42:04.471Z,68.90
2019-01-10T20:44:35.194Z,70.30
2019-01-10T20:47:05.602Z,70.30
2019-01-10T20:49:35.787Z,67.20
2019-01-10T20:52:06.148Z,67.90
2019-01-10T20:54:36.499Z,68.30
2019-01-10T20:57:08.744Z,69.60
2019-01-10T20:59:38.897Z,69.00
2019-01-10T21:02:09.236Z,68.00
2019-01-10T21:04:39.380Z,69.20
2019-01-10T21:07:22.912Z,67.80
2019-01-10T21:09:53.079Z,67.60
2019-01-10T21:12:23.530Z,67.00
2019-01-10T21:14:53.928Z,68.60
2019-01-10T21:17:24.920Z,68.80
2019-01-10T21:19:55.310Z,67.40
2019-01-10T21:22:26.490Z,67.50
2019-01-10T21:24:58.928Z,67.40
2019-01-10T21:27:29.674Z,67.60
2019-01-10T21:30:00.195Z,67.60
2019-01-10T21:32:30.540Z,65.70
2019-01-10T21:35:00.779Z,67.50
2019-01-10T21:37:30.952Z,66.80
2019-01-10T21:40:13.915Z,67.70
2019-01-10T21:42:44.746Z,67.20
2019-01-10T21:45:19.043Z,65.60
2019-01-10T21:47:52.140Z,66.70
2019-01-10T21:50:30.132Z,66.20
2019-01-10T21:53:04.344Z,67.50
2019-01-10T21:55:36.514Z,68.30
2019-01-10T21:58:20.663Z,66.70
2019-01-10T22:01:00.750Z,67.60
2019-01-10T22:03:31.755Z,67.10
2019-01-10T22:06:03.108Z,68.40
2019-01-10T22:08:33.496Z,68.10
2019-01-10T22:11:04.716Z,67.70
2019-01-10T22:13:35.198Z,68.50
2019-01-10T22:16:05.874Z,68.60
2019-01-10T22:21:43.190Z,67.50
2019-01-10T22:24:18.936Z,68.80
2019-01-10T22:26:49.320Z,69.20
2019-01-10T22:29:19.848Z,68.70
2019-01-10T22:31:56.990Z,68.30
2019-01-10T22:34:27.427Z,69.90
2019-01-10T22:36:57.749Z,68.90
2019-01-10T22:39:28.758Z,69.10
2019-01-10T22:41:59.048Z,71.40
2019-01-10T22:44:29.928Z,73.40
2019-01-10T22:47:00.416Z,74.80
2019-01-10T22:49:32.046Z,75.10
2019-01-10T22:52:02.845Z,76.00
2019-01-10T22:54:33.191Z,76.80
2019-01-10T22:57:06.022Z,77.80
2019-01-10T22:59:38.243Z,78.20
2019-01-10T23:02:09.297Z,78.50
2019-01-10T23:04:40.711Z,78.10
2019-01-10T23:07:23.812Z,78.60
2019-01-10T23:10:04.249Z,78.90
2019-01-10T23:12:37.592Z,79.00
2019-01-10T23:15:29.534Z,79.60
2019-01-10T23:18:04.835Z,80.00
2019-01-10T23:20:36.311Z,80.50
2019-01-10T23:23:09.206Z,81.00
2019-01-10T23:25:40.626Z,81.20
2019-01-10T23:28:11.104Z,81.10
2019-01-10T23:31:15.092Z,81.10
2019-01-10T23:33:45.424Z,80.80
2019-01-10T23:36:16.703Z,80.40
2019-01-10T23:39:19.172Z,80.00
2019-01-10T23:41:51.038Z,78.20
2019-01-10T23:44:21.949Z,78.40
2019-01-10T23:46:52.788Z,78.50
2019-01-10T23:49:27.928Z,77.90
2019-01-10T23:51:58.165Z,77.50
2019-01-10T23:54:28.702Z,77.80
2019-01-10T23:56:59.087Z,78.20
2019-01-10T23:59:29.495Z,78.10
